sensor_id;sensor_type;location;lat;lon;timestamp;temperature;humidity
20481;DHT22;10399;50.754;3.366;2023-02-11T00:00:15;8.10;99.90
20481;DHT22;10399;50.754;3.366;2023-02-11T00:02:42;8.00;99.90
20481;DHT22;10399;50.754;3.366;2023-02-11T00:05:13;8.00;99.90
20481;DHT22;10399;50.754;3.366;2023-02-11T00:07:40;8.10;99.90
20481;DHT22;10399;50.754;3.366;2023-02-11T00:10:08;7.90;99.90
20481;DHT22;10399;50.754;3.366;2023-02-11T00:12:36;7.90;99.90
20481;DHT22;10399;50.754;3.366;2023-02-11T00:15:04;7.70;99.90
20481;DHT22;10399;50.754;3.366;2023-02-11T00:17:32;7.70;99.90
20481;DHT22;10399;50.754;3.366;2023-02-11T00:20:02;7.50;99.90
20481;DHT22;10399;50.754;3.366;2023-02-11T00:22:32;7.50;99.90
20481;DHT22;10399;50.754;3.366;2023-02-11T00:24:59;7.50;99.90
20481;DHT22;10399;50.754;3.366;2023-02-11T00:27:26;7.40;99.90
20481;DHT22;10399;50.754;3.366;2023-02-11T00:29:53;7.40;99.90
20481;DHT22;10399;50.754;3.366;2023-02-11T00:32:20;7.40;99.90
20481;DHT22;10399;50.754;3.366;2023-02-11T00:34:51;7.40;99.90
20481;DHT22;10399;50.754;3.366;2023-02-11T00:37:18;7.30;99.90
20481;DHT22;10399;50.754;3.366;2023-02-11T00:39:45;7.00;99.90
20481;DHT22;10399;50.754;3.366;2023-02-11T00:42:14;7.10;99.90
20481;DHT22;10399;50.754;3.366;2023-02-11T00:44:41;7.40;99.90
20481;DHT22;10399;50.754;3.366;2023-02-11T00:47:09;7.20;99.90
20481;DHT22;10399;50.754;3.366;2023-02-11T00:49:36;7.30;99.90
20481;DHT22;10399;50.754;3.366;2023-02-11T00:52:05;7.50;99.90
20481;DHT22;10399;50.754;3.366;2023-02-11T00:54:32;7.20;99.90
20481;DHT22;10399;50.754;3.366;2023-02-11T00:56:59;7.20;99.90
20481;DHT22;10399;50.754;3.366;2023-02-11T00:59:26;7.20;99.90
20481;DHT22;10399;50.754;3.366;2023-02-11T01:01:53;7.10;99.90
20481;DHT22;10399;50.754;3.366;2023-02-11T01:04:21;7.20;99.90
20481;DHT22;10399;50.754;3.366;2023-02-11T01:06:48;7.20;99.90
20481;DHT22;10399;50.754;3.366;2023-02-11T01:09:15;7.10;99.90
20481;DHT22;10399;50.754;3.366;2023-02-11T01:11:42;7.30;99.90
20481;DHT22;10399;50.754;3.366;2023-02-11T01:14:10;7.30;99.90
20481;DHT22;10399;50.754;3.366;2023-02-11T01:16:38;7.30;99.90
20481;DHT22;10399;50.754;3.366;2023-02-11T01:19:05;7.20;99.90
20481;DHT22;10399;50.754;3.366;2023-02-11T01:21:32;7.10;99.90
20481;DHT22;10399;50.754;3.366;2023-02-11T01:23:59;6.90;99.90
20481;DHT22;10399;50.754;3.366;2023-02-11T01:26:26;7.00;99.90
20481;DHT22;10399;50.754;3.366;2023-02-11T01:28:53;7.10;99.90
20481;DHT22;10399;50.754;3.366;2023-02-11T01:31:19;7.00;99.90
20481;DHT22;10399;50.754;3.366;2023-02-11T01:33:46;7.20;99.90
20481;DHT22;10399;50.754;3.366;2023-02-11T01:36:14;7.20;99.90
20481;DHT22;10399;50.754;3.366;2023-02-11T01:38:41;7.20;99.90
20481;DHT22;10399;50.754;3.366;2023-02-11T01:41:12;7.00;99.90
20481;DHT22;10399;50.754;3.366;2023-02-11T01:43:46;6.90;99.90
20481;DHT22;10399;50.754;3.366;2023-02-11T01:46:35;6.90;99.90
20481;DHT22;10399;50.754;3.366;2023-02-11T01:49:11;7.10;99.90
20481;DHT22;10399;50.754;3.366;2023-02-11T01:54:20;6.90;99.90
20481;DHT22;10399;50.754;3.366;2023-02-11T01:57:07;7.00;99.90
20481;DHT22;10399;50.754;3.366;2023-02-11T02:00:10;7.10;99.90
20481;DHT22;10399;50.754;3.366;2023-02-11T02:05:36;6.80;99.90
20481;DHT22;10399;50.754;3.366;2023-02-11T02:11:02;6.90;99.90
20481;DHT22;10399;50.754;3.366;2023-02-11T02:13:31;7.00;99.90
20481;DHT22;10399;50.754;3.366;2023-02-11T02:32:42;7.20;99.90
20481;DHT22;10399;50.754;3.366;2023-02-11T02:43:04;7.00;99.90
20481;DHT22;10399;50.754;3.366;2023-02-11T02:45:34;7.00;99.90
20481;DHT22;10399;50.754;3.366;2023-02-11T02:48:01;7.00;99.90
20481;DHT22;10399;50.754;3.366;2023-02-11T02:50:32;7.00;99.90
20481;DHT22;10399;50.754;3.366;2023-02-11T02:56:08;7.10;99.90
20481;DHT22;10399;50.754;3.366;2023-02-11T03:10:05;7.10;99.90
20481;DHT22;10399;50.754;3.366;2023-02-11T03:12:34;7.00;99.90
20481;DHT22;10399;50.754;3.366;2023-02-11T03:15:02;6.90;99.90
20481;DHT22;10399;50.754;3.366;2023-02-11T03:17:33;7.10;99.90
20481;DHT22;10399;50.754;3.366;2023-02-11T03:20:04;7.20;99.90
20481;DHT22;10399;50.754;3.366;2023-02-11T03:22:40;7.20;99.90
20481;DHT22;10399;50.754;3.366;2023-02-11T03:25:08;7.30;99.90
20481;DHT22;10399;50.754;3.366;2023-02-11T03:27:45;7.40;99.90
20481;DHT22;10399;50.754;3.366;2023-02-11T03:30:20;7.30;99.90
20481;DHT22;10399;50.754;3.366;2023-02-11T03:32:51;7.20;99.90
20481;DHT22;10399;50.754;3.366;2023-02-11T03:35:23;7.30;99.90
20481;DHT22;10399;50.754;3.366;2023-02-11T03:38:06;7.20;99.90
20481;DHT22;10399;50.754;3.366;2023-02-11T03:40:37;7.40;99.90
20481;DHT22;10399;50.754;3.366;2023-02-11T03:43:42;7.40;99.90
20481;DHT22;10399;50.754;3.366;2023-02-11T03:46:11;7.30;99.90
20481;DHT22;10399;50.754;3.366;2023-02-11T03:48:47;7.40;99.90
20481;DHT22;10399;50.754;3.366;2023-02-11T03:51:15;7.50;99.90
20481;DHT22;10399;50.754;3.366;2023-02-11T03:53:45;7.70;99.90
20481;DHT22;10399;50.754;3.366;2023-02-11T03:56:18;7.80;99.90
20481;DHT22;10399;50.754;3.366;2023-02-11T03:58:47;7.80;99.90
20481;DHT22;10399;50.754;3.366;2023-02-11T04:01:15;8.00;99.90
20481;DHT22;10399;50.754;3.366;2023-02-11T04:03:45;7.80;99.90
20481;DHT22;10399;50.754;3.366;2023-02-11T04:06:12;7.70;99.90
20481;DHT22;10399;50.754;3.366;2023-02-11T04:08:39;7.80;99.90
20481;DHT22;10399;50.754;3.366;2023-02-11T04:11:09;7.80;99.90
20481;DHT22;10399;50.754;3.366;2023-02-11T04:13:36;7.90;99.90
20481;DHT22;10399;50.754;3.366;2023-02-11T04:16:03;7.90;99.90
20481;DHT22;10399;50.754;3.366;2023-02-11T04:18:31;7.90;99.90
20481;DHT22;10399;50.754;3.366;2023-02-11T04:20:58;7.70;99.90
20481;DHT22;10399;50.754;3.366;2023-02-11T04:23:25;7.80;99.90
20481;DHT22;10399;50.754;3.366;2023-02-11T04:25:51;7.90;99.90
20481;DHT22;10399;50.754;3.366;2023-02-11T04:28:19;7.80;99.90
20481;DHT22;10399;50.754;3.366;2023-02-11T04:30:49;7.80;99.90
20481;DHT22;10399;50.754;3.366;2023-02-11T04:33:16;7.90;99.90
20481;DHT22;10399;50.754;3.366;2023-02-11T04:35:44;8.00;99.90
20481;DHT22;10399;50.754;3.366;2023-02-11T04:38:11;8.00;99.90
20481;DHT22;10399;50.754;3.366;2023-02-11T04:40:38;7.90;99.90
20481;DHT22;10399;50.754;3.366;2023-02-11T04:43:05;8.00;99.90
20481;DHT22;10399;50.754;3.366;2023-02-11T04:45:32;8.00;99.90
20481;DHT22;10399;50.754;3.366;2023-02-11T04:48:03;8.00;99.90
20481;DHT22;10399;50.754;3.366;2023-02-11T04:50:30;8.10;99.90
20481;DHT22;10399;50.754;3.366;2023-02-11T04:52:57;8.20;99.90
20481;DHT22;10399;50.754;3.366;2023-02-11T04:55:24;8.20;99.90
20481;DHT22;10399;50.754;3.366;2023-02-11T04:57:51;8.10;99.90
20481;DHT22;10399;50.754;3.366;2023-02-11T05:00:18;8.00;99.90
20481;DHT22;10399;50.754;3.366;2023-02-11T05:02:45;8.00;99.90
20481;DHT22;10399;50.754;3.366;2023-02-11T05:05:12;8.00;99.90
20481;DHT22;10399;50.754;3.366;2023-02-11T05:07:40;8.00;99.90
20481;DHT22;10399;50.754;3.366;2023-02-11T05:10:07;8.10;99.90
20481;DHT22;10399;50.754;3.366;2023-02-11T05:12:34;8.30;99.90
20481;DHT22;10399;50.754;3.366;2023-02-11T05:15:01;8.30;99.90
20481;DHT22;10399;50.754;3.366;2023-02-11T05:17:28;8.40;99.90
20481;DHT22;10399;50.754;3.366;2023-02-11T05:19:55;8.40;99.90
20481;DHT22;10399;50.754;3.366;2023-02-11T05:22:22;8.30;99.90
20481;DHT22;10399;50.754;3.366;2023-02-11T05:24:49;8.20;99.90
20481;DHT22;10399;50.754;3.366;2023-02-11T05:27:16;8.10;99.90
20481;DHT22;10399;50.754;3.366;2023-02-11T05:29:43;8.10;99.90
20481;DHT22;10399;50.754;3.366;2023-02-11T05:32:10;8.00;99.90
20481;DHT22;10399;50.754;3.366;2023-02-11T05:34:37;8.10;99.90
20481;DHT22;10399;50.754;3.366;2023-02-11T05:37:05;8.20;99.90
20481;DHT22;10399;50.754;3.366;2023-02-11T05:39:32;8.40;99.90
20481;DHT22;10399;50.754;3.366;2023-02-11T05:41:59;8.10;99.90
20481;DHT22;10399;50.754;3.366;2023-02-11T05:44:26;8.00;99.90
20481;DHT22;10399;50.754;3.366;2023-02-11T05:46:53;8.10;99.90
20481;DHT22;10399;50.754;3.366;2023-02-11T05:49:19;8.20;99.90
20481;DHT22;10399;50.754;3.366;2023-02-11T05:51:47;8.10;99.90
20481;DHT22;10399;50.754;3.366;2023-02-11T05:54:14;8.20;99.90
20481;DHT22;10399;50.754;3.366;2023-02-11T05:56:41;8.30;99.90
20481;DHT22;10399;50.754;3.366;2023-02-11T05:59:13;8.40;99.90
20481;DHT22;10399;50.754;3.366;2023-02-11T06:01:40;8.30;99.90
20481;DHT22;10399;50.754;3.366;2023-02-11T06:04:07;8.50;99.90
20481;DHT22;10399;50.754;3.366;2023-02-11T06:06:35;8.40;99.90
20481;DHT22;10399;50.754;3.366;2023-02-11T06:09:03;8.30;99.90
20481;DHT22;10399;50.754;3.366;2023-02-11T06:11:30;8.30;99.90
20481;DHT22;10399;50.754;3.366;2023-02-11T06:13:57;8.40;99.90
20481;DHT22;10399;50.754;3.366;2023-02-11T06:16:24;8.40;99.90
20481;DHT22;10399;50.754;3.366;2023-02-11T06:18:51;8.60;99.90
20481;DHT22;10399;50.754;3.366;2023-02-11T06:21:18;8.70;99.90
20481;DHT22;10399;50.754;3.366;2023-02-11T06:23:45;8.80;99.90
20481;DHT22;10399;50.754;3.366;2023-02-11T06:26:18;8.70;99.90
20481;DHT22;10399;50.754;3.366;2023-02-11T06:28:45;8.60;99.90
20481;DHT22;10399;50.754;3.366;2023-02-11T06:31:12;8.60;99.90
20481;DHT22;10399;50.754;3.366;2023-02-11T06:33:39;8.60;99.90
20481;DHT22;10399;50.754;3.366;2023-02-11T06:36:18;8.80;99.90
20481;DHT22;10399;50.754;3.366;2023-02-11T06:38:46;8.70;99.90
20481;DHT22;10399;50.754;3.366;2023-02-11T06:41:15;8.80;99.90
20481;DHT22;10399;50.754;3.366;2023-02-11T06:43:43;8.60;99.90
20481;DHT22;10399;50.754;3.366;2023-02-11T06:46:10;8.70;99.90
20481;DHT22;10399;50.754;3.366;2023-02-11T06:48:38;8.50;99.90
20481;DHT22;10399;50.754;3.366;2023-02-11T06:51:07;8.40;99.90
20481;DHT22;10399;50.754;3.366;2023-02-11T06:53:42;8.50;99.90
20481;DHT22;10399;50.754;3.366;2023-02-11T06:56:11;8.40;99.90
20481;DHT22;10399;50.754;3.366;2023-02-11T06:58:39;8.50;99.90
20481;DHT22;10399;50.754;3.366;2023-02-11T07:01:08;8.60;99.90
20481;DHT22;10399;50.754;3.366;2023-02-11T07:03:38;8.50;99.90
20481;DHT22;10399;50.754;3.366;2023-02-11T07:06:06;8.50;99.90
20481;DHT22;10399;50.754;3.366;2023-02-11T07:08:34;8.30;99.90
20481;DHT22;10399;50.754;3.366;2023-02-11T07:11:17;8.30;99.90
20481;DHT22;10399;50.754;3.366;2023-02-11T07:13:45;8.40;99.90
20481;DHT22;10399;50.754;3.366;2023-02-11T07:16:15;8.50;99.90
20481;DHT22;10399;50.754;3.366;2023-02-11T07:18:42;8.60;99.90
20481;DHT22;10399;50.754;3.366;2023-02-11T07:21:11;8.70;99.90
20481;DHT22;10399;50.754;3.366;2023-02-11T07:23:39;8.70;99.90
20481;DHT22;10399;50.754;3.366;2023-02-11T07:26:12;8.80;99.90
20481;DHT22;10399;50.754;3.366;2023-02-11T07:28:40;8.60;99.90
20481;DHT22;10399;50.754;3.366;2023-02-11T07:33:35;8.60;99.90
20481;DHT22;10399;50.754;3.366;2023-02-11T07:36:03;8.80;99.90
20481;DHT22;10399;50.754;3.366;2023-02-11T07:38:32;8.90;99.90
20481;DHT22;10399;50.754;3.366;2023-02-11T07:41:00;8.90;99.90
20481;DHT22;10399;50.754;3.366;2023-02-11T07:43:27;8.90;99.90
20481;DHT22;10399;50.754;3.366;2023-02-11T07:45:55;8.90;99.90
20481;DHT22;10399;50.754;3.366;2023-02-11T07:48:22;8.90;99.90
20481;DHT22;10399;50.754;3.366;2023-02-11T07:50:49;8.80;99.90
20481;DHT22;10399;50.754;3.366;2023-02-11T07:53:16;8.80;99.90
20481;DHT22;10399;50.754;3.366;2023-02-11T07:55:43;8.80;99.90
20481;DHT22;10399;50.754;3.366;2023-02-11T07:58:10;8.80;99.90
20481;DHT22;10399;50.754;3.366;2023-02-11T08:00:37;8.80;99.90
20481;DHT22;10399;50.754;3.366;2023-02-11T08:03:04;9.00;99.90
20481;DHT22;10399;50.754;3.366;2023-02-11T08:05:37;8.90;99.90
20481;DHT22;10399;50.754;3.366;2023-02-11T08:08:04;9.20;99.90
20481;DHT22;10399;50.754;3.366;2023-02-11T08:10:31;9.20;99.90
20481;DHT22;10399;50.754;3.366;2023-02-11T08:12:58;9.20;99.90
20481;DHT22;10399;50.754;3.366;2023-02-11T08:15:25;9.10;99.90
20481;DHT22;10399;50.754;3.366;2023-02-11T08:17:52;9.10;99.90
20481;DHT22;10399;50.754;3.366;2023-02-11T08:20:19;9.20;99.90
20481;DHT22;10399;50.754;3.366;2023-02-11T08:22:46;9.40;99.90
20481;DHT22;10399;50.754;3.366;2023-02-11T08:25:13;9.50;99.90
20481;DHT22;10399;50.754;3.366;2023-02-11T08:27:40;9.50;99.90
20481;DHT22;10399;50.754;3.366;2023-02-11T08:30:08;9.50;99.90
20481;DHT22;10399;50.754;3.366;2023-02-11T08:32:35;9.30;99.90
20481;DHT22;10399;50.754;3.366;2023-02-11T08:35:02;9.30;99.90
20481;DHT22;10399;50.754;3.366;2023-02-11T08:37:29;9.30;99.90
20481;DHT22;10399;50.754;3.366;2023-02-11T08:39:59;9.30;99.90
20481;DHT22;10399;50.754;3.366;2023-02-11T08:42:26;9.40;99.90
20481;DHT22;10399;50.754;3.366;2023-02-11T08:44:53;9.40;99.90
20481;DHT22;10399;50.754;3.366;2023-02-11T08:47:20;9.60;99.90
20481;DHT22;10399;50.754;3.366;2023-02-11T08:49:47;9.60;99.90
20481;DHT22;10399;50.754;3.366;2023-02-11T08:52:14;9.60;99.90
20481;DHT22;10399;50.754;3.366;2023-02-11T08:54:41;9.60;99.90
20481;DHT22;10399;50.754;3.366;2023-02-11T08:57:08;9.60;99.90
20481;DHT22;10399;50.754;3.366;2023-02-11T08:59:35;9.70;99.90
20481;DHT22;10399;50.754;3.366;2023-02-11T09:02:02;9.80;99.90
20481;DHT22;10399;50.754;3.366;2023-02-11T09:04:29;9.80;99.90
20481;DHT22;10399;50.754;3.366;2023-02-11T09:06:57;9.80;99.90
20481;DHT22;10399;50.754;3.366;2023-02-11T09:09:24;9.80;99.90
20481;DHT22;10399;50.754;3.366;2023-02-11T09:11:51;9.90;99.90
20481;DHT22;10399;50.754;3.366;2023-02-11T09:14:23;9.90;99.90
20481;DHT22;10399;50.754;3.366;2023-02-11T09:16:50;10.10;99.90
20481;DHT22;10399;50.754;3.366;2023-02-11T09:19:19;10.00;99.90
20481;DHT22;10399;50.754;3.366;2023-02-11T09:21:46;10.20;99.90
20481;DHT22;10399;50.754;3.366;2023-02-11T09:24:14;10.00;99.90
20481;DHT22;10399;50.754;3.366;2023-02-11T09:26:42;10.10;99.90
20481;DHT22;10399;50.754;3.366;2023-02-11T09:29:09;10.10;99.90
20481;DHT22;10399;50.754;3.366;2023-02-11T09:31:36;10.20;99.90
20481;DHT22;10399;50.754;3.366;2023-02-11T09:34:05;10.10;99.90
20481;DHT22;10399;50.754;3.366;2023-02-11T09:36:35;10.10;99.90
20481;DHT22;10399;50.754;3.366;2023-02-11T09:39:05;10.20;99.90
20481;DHT22;10399;50.754;3.366;2023-02-11T09:42:02;10.30;99.90
20481;DHT22;10399;50.754;3.366;2023-02-11T09:44:34;10.40;99.90
20481;DHT22;10399;50.754;3.366;2023-02-11T09:50:11;10.40;99.90
20481;DHT22;10399;50.754;3.366;2023-02-11T09:52:54;10.30;99.90
20481;DHT22;10399;50.754;3.366;2023-02-11T09:55:30;10.30;99.90
20481;DHT22;10399;50.754;3.366;2023-02-11T09:57:57;10.30;99.90
20481;DHT22;10399;50.754;3.366;2023-02-11T10:00:32;10.40;99.90
20481;DHT22;10399;50.754;3.366;2023-02-11T10:09:00;10.30;99.90
20481;DHT22;10399;50.754;3.366;2023-02-11T10:19:38;10.20;99.90
20481;DHT22;10399;50.754;3.366;2023-02-11T10:24:37;10.20;99.90
20481;DHT22;10399;50.754;3.366;2023-02-11T10:27:19;10.30;99.90
20481;DHT22;10399;50.754;3.366;2023-02-11T10:29:56;10.30;99.90
20481;DHT22;10399;50.754;3.366;2023-02-11T10:32:38;10.30;99.90
20481;DHT22;10399;50.754;3.366;2023-02-11T10:35:16;10.20;99.90
20481;DHT22;10399;50.754;3.366;2023-02-11T10:37:44;10.30;99.90
20481;DHT22;10399;50.754;3.366;2023-02-11T10:40:17;10.30;99.90
20481;DHT22;10399;50.754;3.366;2023-02-11T10:42:48;10.40;99.90
20481;DHT22;10399;50.754;3.366;2023-02-11T10:47:56;10.70;99.90
20481;DHT22;10399;50.754;3.366;2023-02-11T10:50:30;10.50;99.90
20481;DHT22;10399;50.754;3.366;2023-02-11T10:53:18;10.60;99.90
20481;DHT22;10399;50.754;3.366;2023-02-11T10:55:54;10.60;99.90
20481;DHT22;10399;50.754;3.366;2023-02-11T10:58:59;10.70;99.90
20481;DHT22;10399;50.754;3.366;2023-02-11T11:04:33;10.50;99.90
20481;DHT22;10399;50.754;3.366;2023-02-11T11:07:24;10.50;99.90
20481;DHT22;10399;50.754;3.366;2023-02-11T11:10:01;10.60;99.90
20481;DHT22;10399;50.754;3.366;2023-02-11T11:12:34;10.80;99.90
20481;DHT22;10399;50.754;3.366;2023-02-11T11:17:44;10.70;99.90
20481;DHT22;10399;50.754;3.366;2023-02-11T11:20:29;10.60;99.90
20481;DHT22;10399;50.754;3.366;2023-02-11T11:23:18;10.80;99.90
20481;DHT22;10399;50.754;3.366;2023-02-11T11:26:05;10.70;99.90
20481;DHT22;10399;50.754;3.366;2023-02-11T11:28:49;10.80;99.90
20481;DHT22;10399;50.754;3.366;2023-02-11T11:31:45;10.80;99.90
20481;DHT22;10399;50.754;3.366;2023-02-11T11:34:39;10.60;99.90
20481;DHT22;10399;50.754;3.366;2023-02-11T11:37:22;10.60;99.90
20481;DHT22;10399;50.754;3.366;2023-02-11T11:40:20;10.70;99.90
20481;DHT22;10399;50.754;3.366;2023-02-11T11:45:29;10.90;99.90
20481;DHT22;10399;50.754;3.366;2023-02-11T11:50:40;10.80;99.90
20481;DHT22;10399;50.754;3.366;2023-02-11T11:56:10;10.90;99.90
20481;DHT22;10399;50.754;3.366;2023-02-11T11:58:38;11.00;99.90
20481;DHT22;10399;50.754;3.366;2023-02-11T12:15:37;11.40;99.90
20481;DHT22;10399;50.754;3.366;2023-02-11T12:21:25;11.10;99.90
20481;DHT22;10399;50.754;3.366;2023-02-11T12:26:56;11.10;99.90
20481;DHT22;10399;50.754;3.366;2023-02-11T12:43:42;11.20;99.90
20481;DHT22;10399;50.754;3.366;2023-02-11T12:54:59;11.20;99.90
20481;DHT22;10399;50.754;3.366;2023-02-11T12:57:27;11.20;99.90
20481;DHT22;10399;50.754;3.366;2023-02-11T13:03:06;11.10;99.90
20481;DHT22;10399;50.754;3.366;2023-02-11T13:05:56;11.20;99.90
20481;DHT22;10399;50.754;3.366;2023-02-11T13:08:42;11.20;99.90
20481;DHT22;10399;50.754;3.366;2023-02-11T13:11:22;11.30;99.90
20481;DHT22;10399;50.754;3.366;2023-02-11T13:16:41;11.20;99.90
20481;DHT22;10399;50.754;3.366;2023-02-11T13:24:40;11.30;99.90
20481;DHT22;10399;50.754;3.366;2023-02-11T13:35:38;11.40;99.90
20481;DHT22;10399;50.754;3.366;2023-02-11T13:41:03;11.60;99.90
20481;DHT22;10399;50.754;3.366;2023-02-11T13:43:33;11.70;99.90
20481;DHT22;10399;50.754;3.366;2023-02-11T13:46:06;11.60;99.90
20481;DHT22;10399;50.754;3.366;2023-02-11T13:51:13;11.50;99.90
20481;DHT22;10399;50.754;3.366;2023-02-11T13:56:37;11.60;99.90
20481;DHT22;10399;50.754;3.366;2023-02-11T14:05:15;11.70;99.90
20481;DHT22;10399;50.754;3.366;2023-02-11T14:11:07;11.70;99.90
20481;DHT22;10399;50.754;3.366;2023-02-11T14:16:14;11.80;99.90
20481;DHT22;10399;50.754;3.366;2023-02-11T14:21:32;11.90;99.90
20481;DHT22;10399;50.754;3.366;2023-02-11T14:43:20;11.90;99.90
20481;DHT22;10399;50.754;3.366;2023-02-11T14:45:55;11.90;99.90
20481;DHT22;10399;50.754;3.366;2023-02-11T14:48:34;11.80;99.90
20481;DHT22;10399;50.754;3.366;2023-02-11T14:51:07;11.70;99.90
20481;DHT22;10399;50.754;3.366;2023-02-11T14:53:36;11.80;99.90
20481;DHT22;10399;50.754;3.366;2023-02-11T14:56:23;11.80;99.90
20481;DHT22;10399;50.754;3.366;2023-02-11T14:58:53;11.80;99.90
20481;DHT22;10399;50.754;3.366;2023-02-11T15:01:32;11.90;99.90
20481;DHT22;10399;50.754;3.366;2023-02-11T15:04:02;11.90;99.90
20481;DHT22;10399;50.754;3.366;2023-02-11T15:06:32;12.00;99.90
20481;DHT22;10399;50.754;3.366;2023-02-11T15:09:04;11.80;99.90
20481;DHT22;10399;50.754;3.366;2023-02-11T15:11:39;11.70;99.90
20481;DHT22;10399;50.754;3.366;2023-02-11T15:14:25;11.70;99.90
20481;DHT22;10399;50.754;3.366;2023-02-11T15:16:55;11.60;99.90
20481;DHT22;10399;50.754;3.366;2023-02-11T15:19:44;11.70;99.90
20481;DHT22;10399;50.754;3.366;2023-02-11T15:22:20;11.60;99.90
20481;DHT22;10399;50.754;3.366;2023-02-11T15:25:17;11.50;99.90
20481;DHT22;10399;50.754;3.366;2023-02-11T15:27:51;11.60;99.90
20481;DHT22;10399;50.754;3.366;2023-02-11T15:32:57;11.60;99.90
20481;DHT22;10399;50.754;3.366;2023-02-11T15:35:30;11.50;99.90
20481;DHT22;10399;50.754;3.366;2023-02-11T15:37:58;11.60;99.90
20481;DHT22;10399;50.754;3.366;2023-02-11T15:40:30;11.60;99.90
20481;DHT22;10399;50.754;3.366;2023-02-11T15:43:02;11.60;99.90
20481;DHT22;10399;50.754;3.366;2023-02-11T15:45:32;11.60;99.90
20481;DHT22;10399;50.754;3.366;2023-02-11T15:48:13;11.70;99.90
20481;DHT22;10399;50.754;3.366;2023-02-11T15:50:41;11.70;99.90
20481;DHT22;10399;50.754;3.366;2023-02-11T15:53:26;11.70;99.90
20481;DHT22;10399;50.754;3.366;2023-02-11T15:56:18;11.60;99.90
20481;DHT22;10399;50.754;3.366;2023-02-11T15:58:46;11.70;99.90
20481;DHT22;10399;50.754;3.366;2023-02-11T16:01:15;11.70;99.90
20481;DHT22;10399;50.754;3.366;2023-02-11T16:03:42;11.60;99.90
20481;DHT22;10399;50.754;3.366;2023-02-11T16:06:24;11.60;99.90
20481;DHT22;10399;50.754;3.366;2023-02-11T16:09:04;11.70;99.90
20481;DHT22;10399;50.754;3.366;2023-02-11T16:11:34;11.60;99.90
20481;DHT22;10399;50.754;3.366;2023-02-11T16:17:00;11.60;99.90
20481;DHT22;10399;50.754;3.366;2023-02-11T16:19:28;11.60;99.90
20481;DHT22;10399;50.754;3.366;2023-02-11T16:21:57;11.50;99.90
20481;DHT22;10399;50.754;3.366;2023-02-11T16:24:29;11.50;99.90
20481;DHT22;10399;50.754;3.366;2023-02-11T16:27:02;11.60;99.90
20481;DHT22;10399;50.754;3.366;2023-02-11T16:29:31;11.50;99.90
20481;DHT22;10399;50.754;3.366;2023-02-11T16:32:14;11.50;99.90
20481;DHT22;10399;50.754;3.366;2023-02-11T16:34:41;11.50;99.90
20481;DHT22;10399;50.754;3.366;2023-02-11T16:37:09;11.50;99.90
20481;DHT22;10399;50.754;3.366;2023-02-11T16:39:36;11.40;99.90
20481;DHT22;10399;50.754;3.366;2023-02-11T16:42:04;11.30;99.90
20481;DHT22;10399;50.754;3.366;2023-02-11T16:44:33;11.30;99.90
20481;DHT22;10399;50.754;3.366;2023-02-11T16:47:01;11.30;99.90
20481;DHT22;10399;50.754;3.366;2023-02-11T16:49:30;11.30;99.90
20481;DHT22;10399;50.754;3.366;2023-02-11T16:51:59;11.20;99.90
20481;DHT22;10399;50.754;3.366;2023-02-11T16:54:28;11.20;99.90
20481;DHT22;10399;50.754;3.366;2023-02-11T16:56:56;11.20;99.90
20481;DHT22;10399;50.754;3.366;2023-02-11T16:59:23;11.20;99.90
20481;DHT22;10399;50.754;3.366;2023-02-11T17:01:52;11.20;99.90
20481;DHT22;10399;50.754;3.366;2023-02-11T17:04:24;11.10;99.90
20481;DHT22;10399;50.754;3.366;2023-02-11T17:06:52;11.20;99.90
20481;DHT22;10399;50.754;3.366;2023-02-11T17:09:25;11.20;99.90
20481;DHT22;10399;50.754;3.366;2023-02-11T17:11:56;11.10;99.90
20481;DHT22;10399;50.754;3.366;2023-02-11T17:14:23;11.10;99.90
20481;DHT22;10399;50.754;3.366;2023-02-11T17:16:50;11.20;99.90
20481;DHT22;10399;50.754;3.366;2023-02-11T17:19:18;11.20;99.90
20481;DHT22;10399;50.754;3.366;2023-02-11T17:21:50;11.10;99.90
20481;DHT22;10399;50.754;3.366;2023-02-11T17:24:19;11.10;99.90
20481;DHT22;10399;50.754;3.366;2023-02-11T17:26:47;11.20;99.90
20481;DHT22;10399;50.754;3.366;2023-02-11T17:29:18;11.10;99.90
20481;DHT22;10399;50.754;3.366;2023-02-11T17:31:45;11.10;99.90
20481;DHT22;10399;50.754;3.366;2023-02-11T17:34:12;11.10;99.90
20481;DHT22;10399;50.754;3.366;2023-02-11T17:36:39;11.10;99.90
20481;DHT22;10399;50.754;3.366;2023-02-11T17:39:10;11.10;99.90
20481;DHT22;10399;50.754;3.366;2023-02-11T17:41:38;11.10;99.90
20481;DHT22;10399;50.754;3.366;2023-02-11T17:44:07;11.10;99.90
20481;DHT22;10399;50.754;3.366;2023-02-11T17:46:35;11.10;99.90
20481;DHT22;10399;50.754;3.366;2023-02-11T17:49:02;11.00;99.90
20481;DHT22;10399;50.754;3.366;2023-02-11T17:51:34;10.90;99.90
20481;DHT22;10399;50.754;3.366;2023-02-11T17:54:04;10.90;99.90
20481;DHT22;10399;50.754;3.366;2023-02-11T17:56:33;10.90;99.90
20481;DHT22;10399;50.754;3.366;2023-02-11T17:59:00;10.90;99.90
20481;DHT22;10399;50.754;3.366;2023-02-11T18:01:30;10.80;99.90
20481;DHT22;10399;50.754;3.366;2023-02-11T18:03:57;10.80;99.90
20481;DHT22;10399;50.754;3.366;2023-02-11T18:06:25;10.80;99.90
20481;DHT22;10399;50.754;3.366;2023-02-11T18:08:52;10.80;99.90
20481;DHT22;10399;50.754;3.366;2023-02-11T18:11:23;10.80;99.90
20481;DHT22;10399;50.754;3.366;2023-02-11T18:13:53;10.80;99.90
20481;DHT22;10399;50.754;3.366;2023-02-11T18:16:21;10.70;99.90
20481;DHT22;10399;50.754;3.366;2023-02-11T18:18:49;10.70;99.90
20481;DHT22;10399;50.754;3.366;2023-02-11T18:21:18;10.70;99.90
20481;DHT22;10399;50.754;3.366;2023-02-11T18:23:47;10.70;99.90
20481;DHT22;10399;50.754;3.366;2023-02-11T18:26:15;10.70;99.90
20481;DHT22;10399;50.754;3.366;2023-02-11T18:28:43;10.70;99.90
20481;DHT22;10399;50.754;3.366;2023-02-11T18:31:12;10.70;99.90
20481;DHT22;10399;50.754;3.366;2023-02-11T18:33:40;10.70;99.90
20481;DHT22;10399;50.754;3.366;2023-02-11T18:36:10;10.70;99.90
20481;DHT22;10399;50.754;3.366;2023-02-11T18:38:38;10.60;99.90
20481;DHT22;10399;50.754;3.366;2023-02-11T18:41:06;10.70;99.90
20481;DHT22;10399;50.754;3.366;2023-02-11T18:43:34;10.70;99.90
20481;DHT22;10399;50.754;3.366;2023-02-11T18:46:06;10.60;99.90
20481;DHT22;10399;50.754;3.366;2023-02-11T18:48:34;10.60;99.90
20481;DHT22;10399;50.754;3.366;2023-02-11T18:51:01;10.60;99.90
20481;DHT22;10399;50.754;3.366;2023-02-11T18:53:28;10.60;99.90
20481;DHT22;10399;50.754;3.366;2023-02-11T18:55:55;10.60;99.90
20481;DHT22;10399;50.754;3.366;2023-02-11T18:58:22;10.60;99.90
20481;DHT22;10399;50.754;3.366;2023-02-11T19:00:49;10.60;99.90
20481;DHT22;10399;50.754;3.366;2023-02-11T19:03:16;10.60;99.90
20481;DHT22;10399;50.754;3.366;2023-02-11T19:05:46;10.50;99.90
20481;DHT22;10399;50.754;3.366;2023-02-11T19:08:14;10.60;99.90
20481;DHT22;10399;50.754;3.366;2023-02-11T19:10:43;10.60;99.90
20481;DHT22;10399;50.754;3.366;2023-02-11T19:13:12;10.50;99.90
20481;DHT22;10399;50.754;3.366;2023-02-11T19:15:43;10.50;99.90
20481;DHT22;10399;50.754;3.366;2023-02-11T19:18:11;10.50;99.90